createdAt,value
2022-10-31T00:00:09.461Z,100.00
2022-10-31T00:02:41.403Z,100.00
2022-10-31T00:05:12.911Z,100.00
2022-10-31T00:07:44.722Z,100.00
2022-10-31T00:10:16.221Z,100.00
2022-10-31T00:12:48.077Z,100.00
2022-10-31T00:15:19.610Z,100.00
2022-10-31T00:17:51.457Z,100.00
2022-10-31T00:20:22.954Z,100.00
2022-10-31T00:22:54.480Z,100.00
2022-10-31T00:25:26.005Z,100.00
2022-10-31T00:27:58.053Z,100.00
2022-10-31T00:30:29.957Z,100.00
2022-10-31T00:33:02.178Z,100.00
2022-10-31T00:35:33.909Z,100.00
2022-10-31T00:38:05.465Z,100.00
2022-10-31T00:40:36.992Z,100.00
2022-10-31T00:43:08.814Z,100.00
2022-10-31T00:45:40.398Z,100.00
2022-10-31T00:48:12.295Z,100.00
2022-10-31T00:50:43.820Z,100.00
2022-10-31T00:53:15.836Z,100.00
2022-10-31T00:55:47.322Z,100.00
2022-10-31T00:58:19.190Z,100.00
2022-10-31T01:00:57.124Z,100.00
2022-10-31T01:03:29.077Z,100.00
2022-10-31T01:06:00.592Z,100.00
2022-10-31T01:08:32.461Z,100.00
2022-10-31T01:11:03.956Z,100.00
2022-10-31T01:13:35.807Z,100.00
2022-10-31T01:16:07.360Z,100.00
2022-10-31T01:18:39.223Z,100.00
2022-10-31T01:21:10.784Z,100.00
2022-10-31T01:23:42.673Z,100.00
2022-10-31T01:26:14.182Z,100.00
2022-10-31T01:28:46.121Z,100.00
2022-10-31T01:31:17.645Z,100.00
2022-10-31T01:33:49.434Z,100.00
2022-10-31T01:36:20.979Z,100.00
2022-10-31T01:38:52.866Z,100.00
2022-10-31T01:41:24.393Z,100.00
2022-10-31T01:43:56.421Z,100.00
2022-10-31T01:46:27.914Z,100.00
2022-10-31T01:48:59.724Z,100.00
2022-10-31T01:51:31.220Z,100.00
2022-10-31T01:54:03.135Z,100.00
2022-10-31T01:56:34.630Z,100.00
2022-10-31T01:59:06.512Z,100.00
2022-10-31T02:01:38.099Z,100.00
2022-10-31T02:04:10.133Z,100.00
2022-10-31T02:06:41.636Z,100.00
2022-10-31T02:09:13.430Z,100.00
2022-10-31T02:11:44.919Z,100.00
2022-10-31T02:14:16.914Z,100.00
2022-10-31T02:16:48.399Z,100.00
2022-10-31T02:19:20.407Z,100.00
2022-10-31T02:21:51.952Z,100.00
2022-10-31T02:24:23.824Z,100.00
2022-10-31T02:26:55.314Z,100.00
2022-10-31T02:29:27.130Z,100.00
2022-10-31T02:31:58.645Z,100.00
2022-10-31T02:34:30.493Z,100.00
2022-10-31T02:37:01.998Z,100.00
2022-10-31T02:39:33.870Z,100.00
2022-10-31T02:42:05.652Z,100.00
2022-10-31T02:44:37.201Z,100.00
2022-10-31T02:47:08.731Z,100.00
2022-10-31T02:49:40.247Z,100.00
2022-10-31T02:52:11.997Z,100.00
2022-10-31T02:54:43.492Z,100.00
2022-10-31T02:57:15.408Z,100.00
2022-10-31T02:59:46.987Z,100.00
2022-10-31T03:02:18.981Z,100.00
2022-10-31T03:04:50.564Z,100.00
2022-10-31T03:07:22.550Z,100.00
2022-10-31T03:09:54.176Z,100.00
2022-10-31T03:12:26.000Z,100.00
2022-10-31T03:14:57.498Z,100.00
2022-10-31T03:17:29.362Z,100.00
2022-10-31T03:20:00.861Z,100.00
2022-10-31T03:22:32.921Z,100.00
2022-10-31T03:25:04.433Z,100.00
2022-10-31T03:27:36.308Z,100.00
2022-10-31T03:30:08.771Z,100.00
2022-10-31T03:32:40.688Z,100.00
2022-10-31T03:35:12.213Z,100.00
2022-10-31T03:37:44.346Z,100.00
2022-10-31T03:40:15.827Z,100.00
2022-10-31T03:42:47.651Z,100.00
2022-10-31T03:45:19.155Z,100.00
2022-10-31T03:47:50.937Z,100.00
2022-10-31T03:50:22.414Z,100.00
2022-10-31T03:52:54.345Z,100.00
2022-10-31T03:55:25.838Z,100.00
2022-10-31T03:57:58.102Z,100.00
2022-10-31T04:00:29.934Z,100.00
2022-10-31T04:03:02.089Z,100.00
2022-10-31T04:05:33.842Z,100.00
2022-10-31T04:08:05.653Z,100.00
2022-10-31T04:10:37.170Z,100.00
2022-10-31T04:13:09.195Z,100.00
2022-10-31T04:15:41.134Z,100.00
2022-10-31T04:18:12.623Z,100.00
2022-10-31T04:20:44.422Z,100.00
2022-10-31T04:23:15.928Z,100.00
2022-10-31T04:25:47.722Z,100.00
2022-10-31T04:30:55.986Z,100.00
2022-10-31T04:33:27.504Z,100.00
2022-10-31T04:35:59.339Z,100.00
2022-10-31T04:38:30.812Z,100.00
2022-10-31T04:41:02.668Z,100.00
2022-10-31T04:43:34.169Z,100.00
2022-10-31T04:46:05.987Z,100.00
2022-10-31T04:48:37.482Z,100.00
2022-10-31T04:51:09.339Z,100.00
2022-10-31T04:53:40.912Z,100.00
2022-10-31T04:56:12.686Z,100.00
2022-10-31T04:58:44.200Z,100.00
2022-10-31T05:01:16.190Z,100.00
2022-10-31T05:03:47.789Z,100.00
2022-10-31T05:06:19.301Z,100.00
2022-10-31T05:08:50.789Z,100.00
2022-10-31T05:11:22.557Z,100.00
2022-10-31T05:13:54.063Z,100.00
2022-10-31T05:16:26.012Z,100.00
2022-10-31T05:18:57.514Z,100.00
2022-10-31T05:21:29.429Z,100.00
2022-10-31T05:24:00.927Z,100.00
2022-10-31T05:26:32.742Z,100.00
2022-10-31T05:29:04.326Z,100.00
2022-10-31T05:31:36.356Z,100.00
2022-10-31T05:34:07.859Z,100.00
2022-10-31T05:36:39.516Z,100.00
2022-10-31T05:39:11.004Z,100.00
2022-10-31T05:41:42.531Z,100.00
2022-10-31T05:44:14.140Z,100.00
2022-10-31T05:46:45.999Z,100.00
2022-10-31T05:49:18.405Z,100.00
2022-10-31T05:51:50.067Z,100.00
2022-10-31T05:54:21.572Z,100.00
2022-10-31T05:56:53.381Z,100.00
2022-10-31T05:59:24.983Z,100.00
2022-10-31T06:01:56.908Z,100.00
2022-10-31T06:04:28.499Z,100.00
2022-10-31T06:07:00.027Z,100.00
2022-10-31T06:09:31.545Z,100.00
2022-10-31T06:12:03.059Z,100.00
2022-10-31T06:14:34.908Z,100.00
2022-10-31T06:17:06.881Z,100.00
2022-10-31T06:19:38.441Z,100.00
2022-10-31T06:22:12.402Z,100.00
2022-10-31T06:24:43.884Z,100.00
2022-10-31T06:27:15.845Z,100.00
2022-10-31T06:29:47.403Z,100.00
2022-10-31T06:32:18.953Z,100.00
2022-10-31T06:34:50.467Z,100.00
2022-10-31T06:37:21.970Z,100.00
2022-10-31T06:39:53.888Z,100.00
2022-10-31T06:42:25.428Z,100.00
2022-10-31T06:44:56.948Z,100.00
2022-10-31T06:47:28.440Z,100.00
2022-10-31T06:49:59.979Z,100.00
2022-10-31T06:52:31.486Z,100.00
2022-10-31T06:55:03.021Z,100.00
2022-10-31T06:57:34.549Z,100.00
2022-10-31T07:00:06.086Z,100.00
2022-10-31T07:02:37.595Z,100.00
2022-10-31T07:05:09.117Z,100.00
2022-10-31T07:07:40.615Z,100.00
2022-10-31T07:12:43.905Z,100.00
2022-10-31T07:15:15.394Z,100.00
2022-10-31T07:17:46.911Z,100.00
2022-10-31T07:20:18.525Z,100.00
2022-10-31T07:22:50.846Z,100.00
2022-10-31T07:25:22.468Z,100.00
2022-10-31T07:27:53.953Z,100.00
2022-10-31T07:30:25.781Z,100.00
2022-10-31T07:32:57.290Z,100.00
2022-10-31T07:35:29.255Z,100.00
2022-10-31T07:38:00.939Z,100.00
2022-10-31T07:40:33.092Z,100.00
2022-10-31T07:43:05.025Z,100.00
2022-10-31T07:45:38.518Z,100.00
2022-10-31T07:48:10.006Z,100.00
2022-10-31T07:50:41.571Z,100.00
2022-10-31T07:53:13.113Z,100.00
2022-10-31T07:55:44.699Z,100.00
2022-10-31T07:58:16.340Z,100.00
2022-10-31T08:00:47.995Z,100.00
2022-10-31T08:03:19.608Z,100.00
2022-10-31T08:05:51.144Z,100.00
2022-10-31T08:08:22.642Z,100.00
2022-10-31T08:10:54.493Z,100.00
2022-10-31T08:13:26.716Z,100.00
2022-10-31T08:15:58.560Z,100.00
2022-10-31T08:18:30.168Z,100.00
2022-10-31T08:21:01.935Z,100.00
2022-10-31T08:23:33.453Z,100.00
2022-10-31T08:26:07.029Z,100.00
2022-10-31T08:28:38.512Z,100.00
2022-10-31T08:31:11.064Z,100.00
2022-10-31T08:33:42.568Z,100.00
2022-10-31T08:36:14.078Z,100.00
2022-10-31T08:38:45.556Z,100.00
2022-10-31T08:41:17.037Z,100.00
2022-10-31T08:43:48.499Z,100.00
2022-10-31T08:46:20.003Z,100.00
2022-10-31T08:48:51.517Z,100.00
2022-10-31T08:51:23.052Z,100.00
2022-10-31T08:53:54.538Z,100.00
2022-10-31T08:56:26.023Z,100.00
2022-10-31T08:58:57.801Z,100.00
2022-10-31T09:01:29.485Z,100.00
2022-10-31T09:04:01.126Z,100.00
2022-10-31T09:06:33.023Z,100.00
2022-10-31T09:09:04.530Z,100.00
2022-10-31T09:11:42.090Z,100.00
2022-10-31T09:14:13.609Z,100.00
2022-10-31T09:16:45.358Z,100.00
2022-10-31T09:19:17.852Z,100.00
2022-10-31T09:21:49.813Z,100.00
2022-10-31T09:24:21.323Z,100.00
2022-10-31T09:26:52.820Z,100.00
2022-10-31T09:29:24.342Z,100.00
2022-10-31T09:31:55.856Z,100.00
2022-10-31T09:34:27.395Z,99.23
2022-10-31T09:36:59.383Z,97.10
2022-10-31T09:39:30.892Z,98.70
2022-10-31T09:42:02.778Z,97.72
2022-10-31T09:44:34.264Z,96.02
2022-10-31T09:47:06.052Z,95.17
2022-10-31T09:49:38.812Z,96.85
2022-10-31T09:54:47.167Z,100.00
2022-10-31T09:57:18.656Z,100.00
2022-10-31T09:59:50.227Z,100.00
2022-10-31T10:02:21.765Z,100.00
2022-10-31T10:04:53.386Z,100.00
2022-10-31T10:07:24.956Z,100.00
2022-10-31T10:09:56.535Z,100.00
2022-10-31T10:12:28.029Z,100.00
2022-10-31T10:14:59.905Z,96.91
2022-10-31T10:17:32.773Z,97.15
2022-10-31T10:20:04.326Z,99.06
2022-10-31T10:22:35.895Z,99.58
2022-10-31T10:25:07.816Z,100.00
2022-10-31T10:27:39.315Z,97.70
2022-10-31T10:30:10.804Z,98.84
2022-10-31T10:32:42.286Z,99.64
2022-10-31T10:35:14.149Z,100.00
2022-10-31T10:37:45.624Z,100.00
2022-10-31T10:40:17.245Z,100.00
2022-10-31T10:43:07.494Z,100.00
2022-10-31T10:45:57.709Z,100.00
2022-10-31T10:48:29.197Z,100.00
2022-10-31T10:51:01.161Z,100.00
2022-10-31T10:53:33.492Z,97.63
2022-10-31T10:56:05.362Z,97.38
2022-10-31T10:58:38.284Z,98.30
2022-10-31T11:01:10.224Z,100.00
2022-10-31T11:03:41.886Z,98.02
2022-10-31T11:06:13.693Z,95.90
2022-10-31T11:08:45.197Z,95.06
2022-10-31T11:11:17.075Z,94.79
2022-10-31T11:13:48.613Z,94.36
2022-10-31T11:16:20.127Z,93.92
2022-10-31T11:18:51.602Z,92.88
2022-10-31T11:21:23.106Z,94.09
2022-10-31T11:23:54.580Z,94.24
2022-10-31T11:26:29.537Z,95.04
2022-10-31T11:29:01.067Z,97.38
2022-10-31T11:31:34.252Z,99.07
2022-10-31T11:34:05.859Z,99.00
2022-10-31T11:36:37.363Z,99.04
2022-10-31T11:39:08.842Z,97.97
2022-10-31T11:41:40.694Z,98.56
2022-10-31T11:44:12.172Z,97.01
2022-10-31T11:46:44.026Z,94.31
2022-10-31T11:49:15.615Z,95.88
2022-10-31T11:51:47.431Z,94.97
2022-10-31T11:54:18.920Z,94.54
2022-10-31T11:56:50.402Z,93.63
2022-10-31T11:59:21.881Z,92.87
2022-10-31T12:01:53.538Z,91.82
2022-10-31T12:04:25.410Z,91.19
2022-10-31T12:06:56.972Z,92.01
2022-10-31T12:09:28.894Z,92.21
2022-10-31T12:12:00.371Z,91.75
2022-10-31T12:14:33.340Z,91.64
2022-10-31T12:17:04.814Z,90.46
2022-10-31T12:19:36.607Z,90.16
2022-10-31T12:22:10.200Z,90.99
2022-10-31T12:24:42.005Z,89.98
2022-10-31T12:27:13.923Z,90.32
2022-10-31T12:29:45.716Z,88.87
2022-10-31T12:32:17.236Z,88.78
2022-10-31T12:34:49.576Z,88.42
2022-10-31T12:37:21.148Z,87.66
2022-10-31T12:39:53.048Z,86.79
2022-10-31T12:42:24.513Z,88.11
2022-10-31T12:44:56.051Z,88.05
2022-10-31T12:47:27.555Z,86.68
2022-10-31T12:49:59.391Z,85.26
2022-10-31T12:52:32.226Z,86.00
2022-10-31T12:55:04.516Z,86.24
2022-10-31T12:57:37.107Z,85.13
2022-10-31T13:00:08.639Z,84.56
2022-10-31T13:02:40.138Z,84.94
2022-10-31T13:05:12.014Z,83.82
2022-10-31T13:07:44.342Z,86.18
2022-10-31T13:10:15.984Z,84.67
2022-10-31T13:12:47.545Z,83.81
2022-10-31T13:15:20.071Z,83.73
2022-10-31T13:17:51.565Z,83.41
2022-10-31T13:20:23.235Z,84.06
2022-10-31T13:22:57.085Z,84.32
2022-10-31T13:25:28.980Z,85.77
2022-10-31T13:28:00.634Z,84.74
2022-10-31T13:30:32.112Z,83.82
2022-10-31T13:33:04.149Z,84.54
2022-10-31T13:35:36.854Z,85.15
2022-10-31T13:38:08.321Z,83.56
2022-10-31T13:40:40.191Z,84.15
2022-10-31T13:43:11.893Z,84.08
2022-10-31T13:45:43.878Z,86.29
2022-10-31T13:48:15.361Z,86.99
2022-10-31T13:50:47.223Z,87.68
2022-10-31T13:53:18.743Z,88.90
2022-10-31T13:55:50.554Z,90.04
2022-10-31T13:58:22.040Z,91.04
2022-10-31T14:00:53.551Z,92.05
2022-10-31T14:03:49.400Z,92.52
2022-10-31T14:06:16.916Z,93.18
2022-10-31T14:08:48.389Z,93.89
2022-10-31T14:11:20.288Z,94.66
2022-10-31T14:13:51.777Z,94.68
2022-10-31T14:16:23.589Z,95.10
2022-10-31T14:18:55.059Z,96.22
2022-10-31T14:21:26.847Z,97.21
2022-10-31T14:23:58.419Z,97.78
2022-10-31T14:26:29.955Z,98.84
2022-10-31T14:29:01.597Z,99.72
2022-10-31T14:31:33.086Z,100.00
2022-10-31T14:34:04.704Z,100.00
2022-10-31T14:36:36.241Z,100.00
2022-10-31T14:39:08.321Z,100.00
2022-10-31T14:41:40.086Z,100.00
2022-10-31T14:44:11.585Z,100.00
2022-10-31T14:46:43.404Z,100.00
2022-10-31T14:49:15.536Z,100.00
2022-10-31T14:51:47.272Z,100.00
2022-10-31T14:54:18.757Z,100.00
2022-10-31T14:56:50.716Z,100.00
2022-10-31T14:59:22.219Z,100.00
2022-10-31T15:01:55.033Z,100.00
2022-10-31T15:04:26.615Z,100.00
2022-10-31T15:06:58.151Z,100.00
2022-10-31T15:09:29.723Z,100.00
2022-10-31T15:12:01.665Z,100.00
2022-10-31T15:14:33.297Z,100.00
2022-10-31T15:17:05.507Z,100.00
2022-10-31T15:19:39.178Z,100.00
2022-10-31T15:22:10.654Z,100.00
2022-10-31T15:24:42.670Z,100.00
2022-10-31T15:27:14.261Z,100.00
2022-10-31T15:29:45.791Z,100.00
2022-10-31T15:32:17.563Z,100.00
2022-10-31T15:34:49.478Z,100.00
2022-10-31T15:37:21.085Z,100.00
2022-10-31T15:39:52.560Z,100.00
2022-10-31T15:42:24.188Z,100.00
2022-10-31T15:44:55.715Z,100.00
2022-10-31T15:47:27.243Z,100.00
2022-10-31T15:49:59.188Z,100.00
2022-10-31T15:52:30.713Z,100.00
2022-10-31T15:55:02.280Z,100.00
2022-10-31T15:57:33.778Z,100.00
2022-10-31T16:00:05.570Z,100.00
2022-10-31T16:02:37.136Z,100.00
2022-10-31T16:05:09.173Z,100.00
2022-10-31T16:07:40.648Z,100.00
2022-10-31T16:10:12.877Z,100.00
2022-10-31T16:12:44.341Z,100.00
2022-10-31T16:15:16.150Z,100.00
2022-10-31T16:17:47.646Z,100.00
2022-10-31T16:20:20.669Z,100.00
2022-10-31T16:22:52.154Z,100.00
2022-10-31T16:25:23.781Z,100.00
2022-10-31T16:27:55.319Z,100.00
2022-10-31T16:30:26.866Z,100.00
2022-10-31T16:32:59.530Z,100.00
2022-10-31T16:35:31.550Z,100.00
2022-10-31T16:38:03.085Z,100.00
2022-10-31T16:40:34.621Z,100.00
2022-10-31T16:43:06.120Z,100.00
2022-10-31T16:45:38.053Z,100.00
2022-10-31T16:48:09.517Z,100.00
2022-10-31T16:50:41.426Z,100.00
2022-10-31T16:53:15.545Z,100.00
2022-10-31T16:55:47.503Z,100.00
2022-10-31T16:58:18.988Z,100.00
2022-10-31T17:00:50.726Z,100.00
2022-10-31T17:03:22.262Z,100.00
2022-10-31T17:05:56.398Z,100.00
2022-10-31T17:08:27.908Z,100.00
2022-10-31T17:10:59.792Z,100.00
2022-10-31T17:13:31.263Z,100.00
2022-10-31T17:16:03.480Z,100.00
2022-10-31T17:18:34.953Z,100.00
2022-10-31T17:21:07.202Z,100.00
2022-10-31T17:23:38.708Z,100.00
2022-10-31T17:26:10.883Z,100.00
2022-10-31T17:28:42.434Z,100.00
2022-10-31T17:31:14.211Z,100.00
2022-10-31T17:33:46.147Z,100.00
2022-10-31T17:36:17.669Z,100.00
2022-10-31T17:38:49.512Z,100.00
2022-10-31T17:41:21.025Z,100.00
2022-10-31T17:43:52.822Z,100.00
2022-10-31T17:46:24.357Z,100.00
2022-10-31T17:48:55.860Z,100.00
2022-10-31T17:51:27.475Z,100.00
2022-10-31T17:53:59.322Z,100.00
2022-10-31T17:56:30.853Z,100.00
2022-10-31T17:59:02.714Z,100.00
2022-10-31T18:01:34.370Z,100.00
2022-10-31T18:04:06.429Z,100.00
2022-10-31T18:06:37.880Z,100.00
2022-10-31T18:09:09.842Z,100.00
2022-10-31T18:11:41.323Z,100.00
2022-10-31T18:14:13.105Z,100.00
2022-10-31T18:16:44.987Z,100.00
2022-10-31T18:19:17.027Z,100.00
2022-10-31T18:21:48.487Z,100.00
2022-10-31T18:24:20.339Z,100.00
2022-10-31T18:26:51.790Z,100.00
2022-10-31T18:29:23.270Z,100.00
2022-10-31T18:31:55.239Z,100.00
2022-10-31T18:34:27.260Z,100.00
2022-10-31T18:36:58.745Z,100.00
2022-10-31T18:39:30.675Z,100.00
2022-10-31T18:42:02.148Z,100.00
2022-10-31T18:44:34.735Z,100.00
2022-10-31T18:47:06.216Z,100.00
2022-10-31T18:49:38.221Z,100.00
2022-10-31T18:52:09.765Z,100.00
2022-10-31T18:54:41.599Z,100.00
2022-10-31T18:57:13.261Z,100.00
2022-10-31T18:59:45.036Z,100.00
2022-10-31T19:02:17.780Z,100.00
2022-10-31T19:04:49.760Z,100.00
2022-10-31T19:07:21.267Z,100.00
2022-10-31T19:09:52.747Z,100.00
2022-10-31T19:12:24.338Z,100.00
2022-10-31T19:14:56.282Z,100.00
2022-10-31T19:17:27.749Z,100.00
2022-10-31T19:19:59.507Z,100.00
2022-10-31T19:22:31.122Z,100.00
2022-10-31T19:25:06.237Z,100.00
2022-10-31T19:27:41.784Z,100.00
2022-10-31T19:30:13.401Z,100.00
2022-10-31T19:32:44.989Z,100.00
2022-10-31T19:35:16.968Z,100.00
2022-10-31T19:37:48.428Z,100.00
2022-10-31T19:40:20.201Z,100.00
2022-10-31T19:42:51.665Z,100.00
2022-10-31T19:45:23.514Z,100.00
2022-10-31T19:47:55.041Z,100.00
2022-10-31T19:50:28.222Z,100.00
2022-10-31T19:53:00.633Z,100.00
2022-10-31T19:55:32.470Z,100.00
2022-10-31T19:58:04.402Z,100.00
2022-10-31T20:00:35.930Z,100.00
2022-10-31T20:03:07.867Z,100.00
2022-10-31T20:05:39.337Z,100.00
2022-10-31T20:08:10.822Z,100.00
2022-10-31T20:10:42.291Z,100.00
2022-10-31T20:13:15.202Z,100.00
2022-10-31T20:15:46.678Z,100.00
2022-10-31T20:18:18.180Z,100.00
2022-10-31T20:20:49.965Z,100.00
2022-10-31T20:23:21.796Z,100.00
2022-10-31T20:25:53.278Z,100.00
2022-10-31T20:28:24.773Z,100.00
2022-10-31T20:30:56.282Z,100.00
2022-10-31T20:33:28.121Z,100.00
2022-10-31T20:35:59.613Z,100.00
2022-10-31T20:38:31.477Z,100.00
2022-10-31T20:41:02.957Z,100.00
2022-10-31T20:43:34.978Z,100.00
2022-10-31T20:46:06.556Z,100.00
2022-10-31T20:48:38.403Z,100.00
2022-10-31T20:51:09.991Z,100.00
2022-10-31T20:53:41.929Z,100.00
2022-10-31T20:56:13.406Z,100.00
2022-10-31T20:58:45.211Z,100.00
2022-10-31T21:01:16.840Z,100.00
2022-10-31T21:03:50.638Z,100.00
2022-10-31T21:06:23.257Z,100.00
2022-10-31T21:08:55.142Z,100.00
2022-10-31T21:11:26.657Z,100.00
2022-10-31T21:13:58.543Z,100.00
2022-10-31T21:16:31.000Z,100.00
2022-10-31T21:19:03.379Z,100.00
2022-10-31T21:21:34.921Z,100.00
2022-10-31T21:24:07.050Z,100.00
2022-10-31T21:26:38.609Z,100.00
2022-10-31T21:29:10.477Z,100.00
2022-10-31T21:31:41.976Z,100.00
2022-10-31T21:34:13.959Z,100.00
2022-10-31T21:36:45.460Z,100.00
2022-10-31T21:39:17.512Z,100.00
2022-10-31T21:41:48.983Z,100.00
2022-10-31T21:44:20.806Z,100.00
2022-10-31T21:46:52.289Z,100.00
2022-10-31T21:49:24.127Z,100.00
2022-10-31T21:51:55.611Z,100.00
2022-10-31T21:54:27.532Z,100.00
2022-10-31T21:56:59.339Z,100.00
2022-10-31T21:59:30.871Z,100.00
2022-10-31T22:02:02.930Z,100.00
2022-10-31T22:04:34.691Z,100.00
2022-10-31T22:07:06.462Z,100.00
2022-10-31T22:09:38.898Z,100.00
2022-10-31T22:12:10.983Z,100.00
2022-10-31T22:17:14.127Z,100.00
2022-10-31T22:19:45.978Z,100.00
2022-10-31T22:22:17.787Z,100.00
2022-10-31T22:24:49.340Z,100.00
2022-10-31T22:27:21.246Z,100.00
2022-10-31T22:29:56.395Z,100.00
2022-10-31T22:32:28.305Z,100.00
2022-10-31T22:34:59.812Z,100.00
2022-10-31T22:37:31.634Z,100.00
2022-10-31T22:40:03.471Z,100.00
2022-10-31T22:42:35.363Z,100.00
2022-10-31T22:45:06.819Z,100.00
2022-10-31T22:47:38.793Z,100.00
2022-10-31T22:50:10.352Z,100.00
2022-10-31T22:52:42.235Z,100.00
2022-10-31T22:55:15.385Z,100.00
2022-10-31T22:57:47.158Z,100.00
2022-10-31T23:00:18.646Z,100.00
2022-10-31T23:02:50.155Z,100.00
2022-10-31T23:05:21.624Z,100.00
2022-10-31T23:07:53.442Z,100.00
2022-10-31T23:10:33.061Z,100.00
2022-10-31T23:13:23.582Z,100.00
2022-10-31T23:15:55.057Z,100.00
2022-10-31T23:18:48.576Z,100.00
2022-10-31T23:21:37.597Z,100.00
2022-10-31T23:24:09.081Z,100.00
2022-10-31T23:27:00.054Z,100.00
2022-10-31T23:29:31.554Z,100.00
2022-10-31T23:32:03.390Z,100.00
2022-10-31T23:34:34.862Z,100.00
2022-10-31T23:39:39.067Z,100.00
2022-10-31T23:42:10.984Z,100.00
2022-10-31T23:44:42.522Z,100.00
2022-10-31T23:47:14.368Z,100.00
2022-10-31T23:49:45.879Z,100.00
2022-10-31T23:52:17.779Z,100.00
2022-10-31T23:54:49.260Z,100.00
2022-10-31T23:57:21.134Z,100.00
2022-10-31T23:59:52.707Z,100.00
